sensor_id;sensor_type;location;lat;lon;timestamp;temperature;humidity
11591;DHT22;5851;54.050;9.974;2023-07-08T00:00:14;17.60;77.50
11591;DHT22;5851;54.050;9.974;2023-07-08T00:02:42;17.30;78.50
11591;DHT22;5851;54.050;9.974;2023-07-08T00:05:10;17.30;78.30
11591;DHT22;5851;54.050;9.974;2023-07-08T00:07:37;17.40;77.40
11591;DHT22;5851;54.050;9.974;2023-07-08T00:10:16;17.30;78.00
11591;DHT22;5851;54.050;9.974;2023-07-08T00:12:44;17.30;78.70
11591;DHT22;5851;54.050;9.974;2023-07-08T00:15:13;17.20;78.80
11591;DHT22;5851;54.050;9.974;2023-07-08T00:17:41;17.10;79.40
11591;DHT22;5851;54.050;9.974;2023-07-08T00:20:14;17.00;79.60
11591;DHT22;5851;54.050;9.974;2023-07-08T00:22:41;17.00;79.00
11591;DHT22;5851;54.050;9.974;2023-07-08T00:25:08;17.20;78.60
11591;DHT22;5851;54.050;9.974;2023-07-08T00:27:36;16.90;79.60
11591;DHT22;5851;54.050;9.974;2023-07-08T00:30:17;17.00;78.40
11591;DHT22;5851;54.050;9.974;2023-07-08T00:32:44;17.10;79.30
11591;DHT22;5851;54.050;9.974;2023-07-08T00:35:11;16.90;79.80
11591;DHT22;5851;54.050;9.974;2023-07-08T00:37:38;16.90;79.70
11591;DHT22;5851;54.050;9.974;2023-07-08T00:40:14;16.90;80.30
11591;DHT22;5851;54.050;9.974;2023-07-08T00:42:42;16.80;79.30
11591;DHT22;5851;54.050;9.974;2023-07-08T00:45:18;16.90;79.50
11591;DHT22;5851;54.050;9.974;2023-07-08T00:47:46;17.00;79.00
11591;DHT22;5851;54.050;9.974;2023-07-08T00:50:15;17.00;79.20
11591;DHT22;5851;54.050;9.974;2023-07-08T00:52:44;16.80;80.00
11591;DHT22;5851;54.050;9.974;2023-07-08T00:55:12;16.90;79.40
11591;DHT22;5851;54.050;9.974;2023-07-08T00:57:42;17.00;78.00
11591;DHT22;5851;54.050;9.974;2023-07-08T01:00:12;17.00;78.40
11591;DHT22;5851;54.050;9.974;2023-07-08T01:02:46;16.90;79.20
11591;DHT22;5851;54.050;9.974;2023-07-08T01:05:16;16.90;78.50
11591;DHT22;5851;54.050;9.974;2023-07-08T01:07:46;16.80;79.40
11591;DHT22;5851;54.050;9.974;2023-07-08T01:10:20;16.80;78.70
11591;DHT22;5851;54.050;9.974;2023-07-08T01:12:53;16.90;78.50
11591;DHT22;5851;54.050;9.974;2023-07-08T01:15:23;16.80;78.60
11591;DHT22;5851;54.050;9.974;2023-07-08T01:17:52;16.60;79.80
11591;DHT22;5851;54.050;9.974;2023-07-08T01:20:19;16.60;80.10
11591;DHT22;5851;54.050;9.974;2023-07-08T01:22:48;16.50;80.70
11591;DHT22;5851;54.050;9.974;2023-07-08T01:25:16;16.60;79.90
11591;DHT22;5851;54.050;9.974;2023-07-08T01:27:45;16.70;79.20
11591;DHT22;5851;54.050;9.974;2023-07-08T01:30:14;16.70;79.60
11591;DHT22;5851;54.050;9.974;2023-07-08T01:32:46;16.70;79.60
11591;DHT22;5851;54.050;9.974;2023-07-08T01:35:14;16.60;80.80
11591;DHT22;5851;54.050;9.974;2023-07-08T01:37:44;16.60;80.30
11591;DHT22;5851;54.050;9.974;2023-07-08T01:40:24;16.60;80.00
11591;DHT22;5851;54.050;9.974;2023-07-08T01:42:51;16.40;81.00
11591;DHT22;5851;54.050;9.974;2023-07-08T01:45:19;16.30;81.30
11591;DHT22;5851;54.050;9.974;2023-07-08T01:47:49;16.30;80.40
11591;DHT22;5851;54.050;9.974;2023-07-08T01:50:18;16.40;79.70
11591;DHT22;5851;54.050;9.974;2023-07-08T01:52:47;16.40;79.30
11591;DHT22;5851;54.050;9.974;2023-07-08T01:55:15;16.50;79.60
11591;DHT22;5851;54.050;9.974;2023-07-08T01:57:43;16.30;80.30
11591;DHT22;5851;54.050;9.974;2023-07-08T02:00:11;16.30;79.90
11591;DHT22;5851;54.050;9.974;2023-07-08T02:02:38;16.40;79.60
11591;DHT22;5851;54.050;9.974;2023-07-08T02:05:05;16.50;79.10
11591;DHT22;5851;54.050;9.974;2023-07-08T02:07:32;16.50;79.00
11591;DHT22;5851;54.050;9.974;2023-07-08T02:09:59;16.40;79.90
11591;DHT22;5851;54.050;9.974;2023-07-08T02:12:26;16.40;80.90
11591;DHT22;5851;54.050;9.974;2023-07-08T02:14:54;16.30;80.30
11591;DHT22;5851;54.050;9.974;2023-07-08T02:17:21;16.20;81.90
11591;DHT22;5851;54.050;9.974;2023-07-08T02:19:48;16.10;80.90
11591;DHT22;5851;54.050;9.974;2023-07-08T02:22:15;16.20;80.10
11591;DHT22;5851;54.050;9.974;2023-07-08T02:24:42;16.30;79.80
11591;DHT22;5851;54.050;9.974;2023-07-08T02:27:09;16.20;80.90
11591;DHT22;5851;54.050;9.974;2023-07-08T02:29:35;15.90;81.70
11591;DHT22;5851;54.050;9.974;2023-07-08T02:32:06;15.80;82.90
11591;DHT22;5851;54.050;9.974;2023-07-08T02:34:35;15.90;81.30
11591;DHT22;5851;54.050;9.974;2023-07-08T02:37:02;16.00;80.50
11591;DHT22;5851;54.050;9.974;2023-07-08T02:39:29;16.10;80.70
11591;DHT22;5851;54.050;9.974;2023-07-08T02:41:56;16.10;80.90
11591;DHT22;5851;54.050;9.974;2023-07-08T02:44:23;16.00;81.30
11591;DHT22;5851;54.050;9.974;2023-07-08T02:46:52;15.90;82.10
11591;DHT22;5851;54.050;9.974;2023-07-08T02:49:20;15.90;81.10
11591;DHT22;5851;54.050;9.974;2023-07-08T02:51:47;16.00;80.80
11591;DHT22;5851;54.050;9.974;2023-07-08T02:54:14;16.00;81.30
11591;DHT22;5851;54.050;9.974;2023-07-08T02:56:41;16.00;82.30
11591;DHT22;5851;54.050;9.974;2023-07-08T02:59:07;15.80;82.10
11591;DHT22;5851;54.050;9.974;2023-07-08T03:01:34;15.70;81.50
11591;DHT22;5851;54.050;9.974;2023-07-08T03:04:07;15.80;80.90
11591;DHT22;5851;54.050;9.974;2023-07-08T03:06:35;15.90;81.10
11591;DHT22;5851;54.050;9.974;2023-07-08T03:09:02;16.00;80.20
11591;DHT22;5851;54.050;9.974;2023-07-08T03:11:29;16.00;79.80
11591;DHT22;5851;54.050;9.974;2023-07-08T03:13:56;16.00;80.30
11591;DHT22;5851;54.050;9.974;2023-07-08T03:16:23;16.00;80.50
11591;DHT22;5851;54.050;9.974;2023-07-08T03:18:50;16.00;80.80
11591;DHT22;5851;54.050;9.974;2023-07-08T03:21:17;15.90;80.90
11591;DHT22;5851;54.050;9.974;2023-07-08T03:23:47;15.90;80.70
11591;DHT22;5851;54.050;9.974;2023-07-08T03:26:16;15.90;80.50
11591;DHT22;5851;54.050;9.974;2023-07-08T03:28:44;16.00;80.40
11591;DHT22;5851;54.050;9.974;2023-07-08T03:31:11;15.90;80.80
11591;DHT22;5851;54.050;9.974;2023-07-08T03:33:37;15.80;81.70
11591;DHT22;5851;54.050;9.974;2023-07-08T03:36:08;15.70;82.50
11591;DHT22;5851;54.050;9.974;2023-07-08T03:38:37;15.60;83.10
11591;DHT22;5851;54.050;9.974;2023-07-08T03:41:06;15.40;83.60
11591;DHT22;5851;54.050;9.974;2023-07-08T03:43:32;15.40;83.60
11591;DHT22;5851;54.050;9.974;2023-07-08T03:45:59;15.60;82.40
11591;DHT22;5851;54.050;9.974;2023-07-08T03:48:26;15.70;81.50
11591;DHT22;5851;54.050;9.974;2023-07-08T03:50:53;15.90;79.80
11591;DHT22;5851;54.050;9.974;2023-07-08T03:53:20;16.00;81.20
11591;DHT22;5851;54.050;9.974;2023-07-08T03:55:47;15.90;80.60
11591;DHT22;5851;54.050;9.974;2023-07-08T03:58:15;16.00;82.00
11591;DHT22;5851;54.050;9.974;2023-07-08T04:00:42;15.80;84.40
11591;DHT22;5851;54.050;9.974;2023-07-08T04:03:11;15.70;83.30
11591;DHT22;5851;54.050;9.974;2023-07-08T04:05:38;15.70;83.80
11591;DHT22;5851;54.050;9.974;2023-07-08T04:08:05;15.70;83.70
11591;DHT22;5851;54.050;9.974;2023-07-08T04:10:32;15.90;83.40
11591;DHT22;5851;54.050;9.974;2023-07-08T04:12:59;15.90;84.40
11591;DHT22;5851;54.050;9.974;2023-07-08T04:15:27;15.80;84.80
11591;DHT22;5851;54.050;9.974;2023-07-08T04:17:54;16.00;84.70
11591;DHT22;5851;54.050;9.974;2023-07-08T04:20:23;16.00;84.40
11591;DHT22;5851;54.050;9.974;2023-07-08T04:22:50;15.90;84.90
11591;DHT22;5851;54.050;9.974;2023-07-08T04:25:18;16.00;84.70
11591;DHT22;5851;54.050;9.974;2023-07-08T04:27:45;16.20;84.30
11591;DHT22;5851;54.050;9.974;2023-07-08T04:30:21;16.00;85.10
11591;DHT22;5851;54.050;9.974;2023-07-08T04:32:51;15.90;85.70
11591;DHT22;5851;54.050;9.974;2023-07-08T04:35:18;15.80;86.40
11591;DHT22;5851;54.050;9.974;2023-07-08T04:37:45;15.70;86.60
11591;DHT22;5851;54.050;9.974;2023-07-08T04:40:20;15.80;87.30
11591;DHT22;5851;54.050;9.974;2023-07-08T04:42:47;15.80;86.60
11591;DHT22;5851;54.050;9.974;2023-07-08T04:45:16;15.80;86.50
11591;DHT22;5851;54.050;9.974;2023-07-08T04:47:43;16.00;85.60
11591;DHT22;5851;54.050;9.974;2023-07-08T04:50:13;16.10;85.60
11591;DHT22;5851;54.050;9.974;2023-07-08T04:52:41;16.30;82.40
11591;DHT22;5851;54.050;9.974;2023-07-08T04:55:08;16.40;84.00
11591;DHT22;5851;54.050;9.974;2023-07-08T04:57:36;16.50;84.00
11591;DHT22;5851;54.050;9.974;2023-07-08T05:00:04;16.50;84.20
11591;DHT22;5851;54.050;9.974;2023-07-08T05:02:34;16.50;84.10
11591;DHT22;5851;54.050;9.974;2023-07-08T05:05:02;16.60;84.00
11591;DHT22;5851;54.050;9.974;2023-07-08T05:07:30;16.50;84.10
11591;DHT22;5851;54.050;9.974;2023-07-08T05:09:57;16.60;84.20
11591;DHT22;5851;54.050;9.974;2023-07-08T05:12:25;16.70;84.00
11591;DHT22;5851;54.050;9.974;2023-07-08T05:14:52;16.80;84.00
11591;DHT22;5851;54.050;9.974;2023-07-08T05:17:19;16.80;83.20
11591;DHT22;5851;54.050;9.974;2023-07-08T05:19:46;16.80;83.20
11591;DHT22;5851;54.050;9.974;2023-07-08T05:22:16;16.90;83.10
11591;DHT22;5851;54.050;9.974;2023-07-08T05:24:45;16.90;82.80
11591;DHT22;5851;54.050;9.974;2023-07-08T05:27:12;17.00;82.90
11591;DHT22;5851;54.050;9.974;2023-07-08T05:29:40;17.00;82.60
11591;DHT22;5851;54.050;9.974;2023-07-08T05:32:08;17.10;82.30
11591;DHT22;5851;54.050;9.974;2023-07-08T05:34:35;17.10;82.50
11591;DHT22;5851;54.050;9.974;2023-07-08T05:37:02;17.10;82.30
11591;DHT22;5851;54.050;9.974;2023-07-08T05:39:30;17.30;82.30
11591;DHT22;5851;54.050;9.974;2023-07-08T05:41:58;17.30;82.40
11591;DHT22;5851;54.050;9.974;2023-07-08T05:44:25;17.60;81.00
11591;DHT22;5851;54.050;9.974;2023-07-08T05:46:52;17.50;79.90
11591;DHT22;5851;54.050;9.974;2023-07-08T05:49:19;17.60;80.70
11591;DHT22;5851;54.050;9.974;2023-07-08T05:51:46;17.60;80.50
11591;DHT22;5851;54.050;9.974;2023-07-08T05:54:13;17.70;82.10
11591;DHT22;5851;54.050;9.974;2023-07-08T05:56:40;18.20;83.40
11591;DHT22;5851;54.050;9.974;2023-07-08T05:59:09;18.60;80.80
11591;DHT22;5851;54.050;9.974;2023-07-08T06:01:37;18.80;77.60
11591;DHT22;5851;54.050;9.974;2023-07-08T06:04:04;18.90;75.70
11591;DHT22;5851;54.050;9.974;2023-07-08T06:06:30;18.80;75.70
11591;DHT22;5851;54.050;9.974;2023-07-08T06:08:57;19.00;75.80
11591;DHT22;5851;54.050;9.974;2023-07-08T06:11:25;19.30;74.70
11591;DHT22;5851;54.050;9.974;2023-07-08T06:13:52;19.30;75.30
11591;DHT22;5851;54.050;9.974;2023-07-08T06:16:21;19.50;74.90
11591;DHT22;5851;54.050;9.974;2023-07-08T06:18:47;19.60;73.80
11591;DHT22;5851;54.050;9.974;2023-07-08T06:21:14;19.80;74.20
11591;DHT22;5851;54.050;9.974;2023-07-08T06:23:41;19.90;73.50
11591;DHT22;5851;54.050;9.974;2023-07-08T06:26:08;20.10;71.60
11591;DHT22;5851;54.050;9.974;2023-07-08T06:28:35;20.00;71.90
11591;DHT22;5851;54.050;9.974;2023-07-08T06:31:02;20.00;70.20
11591;DHT22;5851;54.050;9.974;2023-07-08T06:33:30;20.20;70.90
11591;DHT22;5851;54.050;9.974;2023-07-08T06:35:57;20.40;70.60
11591;DHT22;5851;54.050;9.974;2023-07-08T06:38:24;20.40;72.50
11591;DHT22;5851;54.050;9.974;2023-07-08T06:40:51;20.30;71.00
11591;DHT22;5851;54.050;9.974;2023-07-08T06:43:17;20.40;69.60
11591;DHT22;5851;54.050;9.974;2023-07-08T06:45:44;20.60;66.40
11591;DHT22;5851;54.050;9.974;2023-07-08T06:48:11;20.50;68.00
11591;DHT22;5851;54.050;9.974;2023-07-08T06:50:42;20.70;68.20
11591;DHT22;5851;54.050;9.974;2023-07-08T06:53:09;20.80;66.30
11591;DHT22;5851;54.050;9.974;2023-07-08T06:55:36;20.70;65.20
11591;DHT22;5851;54.050;9.974;2023-07-08T06:58:03;20.80;68.40
11591;DHT22;5851;54.050;9.974;2023-07-08T07:00:30;21.00;68.50
11591;DHT22;5851;54.050;9.974;2023-07-08T07:02:57;21.20;67.90
11591;DHT22;5851;54.050;9.974;2023-07-08T07:05:24;21.30;68.10
11591;DHT22;5851;54.050;9.974;2023-07-08T07:07:52;21.50;66.90
11591;DHT22;5851;54.050;9.974;2023-07-08T07:10:19;21.60;66.70
11591;DHT22;5851;54.050;9.974;2023-07-08T07:12:46;21.30;63.90
11591;DHT22;5851;54.050;9.974;2023-07-08T07:15:13;21.40;65.20
11591;DHT22;5851;54.050;9.974;2023-07-08T07:17:40;21.30;68.30
11591;DHT22;5851;54.050;9.974;2023-07-08T07:20:08;21.50;66.60
11591;DHT22;5851;54.050;9.974;2023-07-08T07:22:35;21.40;64.30
11591;DHT22;5851;54.050;9.974;2023-07-08T07:25:04;21.20;67.30
11591;DHT22;5851;54.050;9.974;2023-07-08T07:27:31;21.70;64.30
11591;DHT22;5851;54.050;9.974;2023-07-08T07:29:58;21.90;64.00
11591;DHT22;5851;54.050;9.974;2023-07-08T07:32:25;22.20;61.90
11591;DHT22;5851;54.050;9.974;2023-07-08T07:34:55;22.10;63.30
11591;DHT22;5851;54.050;9.974;2023-07-08T07:37:23;22.00;62.40
11591;DHT22;5851;54.050;9.974;2023-07-08T07:39:50;22.40;65.20
11591;DHT22;5851;54.050;9.974;2023-07-08T07:42:19;22.60;65.00
11591;DHT22;5851;54.050;9.974;2023-07-08T07:44:46;22.70;63.80
11591;DHT22;5851;54.050;9.974;2023-07-08T07:47:13;22.90;61.30
11591;DHT22;5851;54.050;9.974;2023-07-08T07:49:40;23.00;63.80
11591;DHT22;5851;54.050;9.974;2023-07-08T07:52:07;22.90;63.80
11591;DHT22;5851;54.050;9.974;2023-07-08T07:54:36;23.00;62.50
11591;DHT22;5851;54.050;9.974;2023-07-08T07:57:03;22.40;61.90
11591;DHT22;5851;54.050;9.974;2023-07-08T07:59:32;22.80;61.70
11591;DHT22;5851;54.050;9.974;2023-07-08T08:01:59;22.70;59.90
11591;DHT22;5851;54.050;9.974;2023-07-08T08:04:26;22.80;58.20
11591;DHT22;5851;54.050;9.974;2023-07-08T08:06:52;22.20;58.50
11591;DHT22;5851;54.050;9.974;2023-07-08T08:09:19;22.00;59.70
11591;DHT22;5851;54.050;9.974;2023-07-08T08:11:46;22.50;64.00
11591;DHT22;5851;54.050;9.974;2023-07-08T08:14:13;22.80;61.20
11591;DHT22;5851;54.050;9.974;2023-07-08T08:16:41;22.90;60.00
11591;DHT22;5851;54.050;9.974;2023-07-08T08:19:08;23.00;62.50
11591;DHT22;5851;54.050;9.974;2023-07-08T08:21:35;22.80;60.20
11591;DHT22;5851;54.050;9.974;2023-07-08T08:24:03;22.50;59.80
11591;DHT22;5851;54.050;9.974;2023-07-08T08:26:30;22.50;60.10
11591;DHT22;5851;54.050;9.974;2023-07-08T08:28:57;22.40;59.60
11591;DHT22;5851;54.050;9.974;2023-07-08T08:31:23;22.60;59.60
11591;DHT22;5851;54.050;9.974;2023-07-08T08:33:52;22.80;59.20
11591;DHT22;5851;54.050;9.974;2023-07-08T08:36:20;23.10;60.70
11591;DHT22;5851;54.050;9.974;2023-07-08T08:38:47;23.50;59.20
11591;DHT22;5851;54.050;9.974;2023-07-08T08:41:16;23.60;58.10
11591;DHT22;5851;54.050;9.974;2023-07-08T08:43:44;23.20;56.90
11591;DHT22;5851;54.050;9.974;2023-07-08T08:46:29;23.60;59.20
11591;DHT22;5851;54.050;9.974;2023-07-08T08:49:05;23.30;56.90
11591;DHT22;5851;54.050;9.974;2023-07-08T08:51:37;23.30;59.30
11591;DHT22;5851;54.050;9.974;2023-07-08T08:54:04;23.60;61.10
11591;DHT22;5851;54.050;9.974;2023-07-08T08:56:37;23.80;61.10
11591;DHT22;5851;54.050;9.974;2023-07-08T08:59:10;24.30;58.80
11591;DHT22;5851;54.050;9.974;2023-07-08T09:01:40;24.00;58.90
11591;DHT22;5851;54.050;9.974;2023-07-08T09:04:12;23.80;57.70
11591;DHT22;5851;54.050;9.974;2023-07-08T09:06:41;23.50;59.90
11591;DHT22;5851;54.050;9.974;2023-07-08T09:09:13;23.90;57.40
11591;DHT22;5851;54.050;9.974;2023-07-08T09:11:48;23.80;57.50
11591;DHT22;5851;54.050;9.974;2023-07-08T09:14:20;23.50;58.60
11591;DHT22;5851;54.050;9.974;2023-07-08T09:16:53;23.60;62.20
11591;DHT22;5851;54.050;9.974;2023-07-08T09:19:26;24.30;59.00
11591;DHT22;5851;54.050;9.974;2023-07-08T09:22:01;24.40;58.80
11591;DHT22;5851;54.050;9.974;2023-07-08T09:24:34;23.80;56.30
11591;DHT22;5851;54.050;9.974;2023-07-08T09:27:03;23.60;57.50
11591;DHT22;5851;54.050;9.974;2023-07-08T09:29:31;23.80;60.00
11591;DHT22;5851;54.050;9.974;2023-07-08T09:31:59;24.30;59.10
11591;DHT22;5851;54.050;9.974;2023-07-08T09:34:40;24.30;60.10
11591;DHT22;5851;54.050;9.974;2023-07-08T09:37:23;24.30;56.70
11591;DHT22;5851;54.050;9.974;2023-07-08T09:39:52;23.80;56.70
11591;DHT22;5851;54.050;9.974;2023-07-08T09:42:20;23.70;57.90
11591;DHT22;5851;54.050;9.974;2023-07-08T09:44:48;24.00;57.40
11591;DHT22;5851;54.050;9.974;2023-07-08T09:47:26;23.90;57.20
11591;DHT22;5851;54.050;9.974;2023-07-08T09:50:03;24.30;57.60
11591;DHT22;5851;54.050;9.974;2023-07-08T09:52:31;24.50;57.70
11591;DHT22;5851;54.050;9.974;2023-07-08T09:54:58;24.90;57.10
11591;DHT22;5851;54.050;9.974;2023-07-08T09:57:27;25.20;56.00
11591;DHT22;5851;54.050;9.974;2023-07-08T09:59:59;24.70;53.40
11591;DHT22;5851;54.050;9.974;2023-07-08T10:02:31;24.20;54.20
11591;DHT22;5851;54.050;9.974;2023-07-08T10:05:03;24.40;56.50
11591;DHT22;5851;54.050;9.974;2023-07-08T10:07:33;24.40;54.10
11591;DHT22;5851;54.050;9.974;2023-07-08T10:10:06;24.50;54.30
11591;DHT22;5851;54.050;9.974;2023-07-08T10:12:37;24.50;53.90
11591;DHT22;5851;54.050;9.974;2023-07-08T10:15:13;24.40;54.30
11591;DHT22;5851;54.050;9.974;2023-07-08T10:17:41;24.50;54.40
11591;DHT22;5851;54.050;9.974;2023-07-08T10:20:13;25.20;54.80
11591;DHT22;5851;54.050;9.974;2023-07-08T10:22:47;25.10;53.20
11591;DHT22;5851;54.050;9.974;2023-07-08T10:25:26;24.90;53.90
11591;DHT22;5851;54.050;9.974;2023-07-08T10:28:03;24.70;53.00
11591;DHT22;5851;54.050;9.974;2023-07-08T10:30:55;24.50;52.70
11591;DHT22;5851;54.050;9.974;2023-07-08T10:33:48;25.00;52.30
11591;DHT22;5851;54.050;9.974;2023-07-08T10:36:25;25.20;55.30
11591;DHT22;5851;54.050;9.974;2023-07-08T10:39:17;25.40;54.90
11591;DHT22;5851;54.050;9.974;2023-07-08T10:41:53;25.50;53.60
11591;DHT22;5851;54.050;9.974;2023-07-08T10:44:28;25.70;52.30
11591;DHT22;5851;54.050;9.974;2023-07-08T10:47:07;25.60;52.60
11591;DHT22;5851;54.050;9.974;2023-07-08T10:49:50;25.60;51.60
11591;DHT22;5851;54.050;9.974;2023-07-08T10:52:35;25.40;50.60
11591;DHT22;5851;54.050;9.974;2023-07-08T10:55:18;25.40;51.10
11591;DHT22;5851;54.050;9.974;2023-07-08T10:58:07;25.40;51.30
11591;DHT22;5851;54.050;9.974;2023-07-08T11:00:43;25.40;51.30
11591;DHT22;5851;54.050;9.974;2023-07-08T11:03:31;25.30;49.60
11591;DHT22;5851;54.050;9.974;2023-07-08T11:06:06;25.30;49.10
11591;DHT22;5851;54.050;9.974;2023-07-08T11:08:41;25.30;49.50
11591;DHT22;5851;54.050;9.974;2023-07-08T11:11:11;25.60;49.60
11591;DHT22;5851;54.050;9.974;2023-07-08T11:13:44;25.70;50.10
11591;DHT22;5851;54.050;9.974;2023-07-08T11:16:15;25.70;51.10
11591;DHT22;5851;54.050;9.974;2023-07-08T11:18:48;25.70;48.20
11591;DHT22;5851;54.050;9.974;2023-07-08T11:21:22;26.00;49.50
11591;DHT22;5851;54.050;9.974;2023-07-08T11:23:56;25.90;48.30
11591;DHT22;5851;54.050;9.974;2023-07-08T11:26:29;25.60;47.80
11591;DHT22;5851;54.050;9.974;2023-07-08T11:28:58;25.60;49.00
11591;DHT22;5851;54.050;9.974;2023-07-08T11:31:28;25.80;48.50
11591;DHT22;5851;54.050;9.974;2023-07-08T11:33:56;25.70;49.00
11591;DHT22;5851;54.050;9.974;2023-07-08T11:36:25;25.70;47.30
11591;DHT22;5851;54.050;9.974;2023-07-08T11:38:56;25.60;47.70
11591;DHT22;5851;54.050;9.974;2023-07-08T11:41:27;25.70;47.90
11591;DHT22;5851;54.050;9.974;2023-07-08T11:43:57;25.70;48.60
11591;DHT22;5851;54.050;9.974;2023-07-08T11:46:25;25.70;48.10
11591;DHT22;5851;54.050;9.974;2023-07-08T11:48:57;25.60;48.20
11591;DHT22;5851;54.050;9.974;2023-07-08T11:51:29;25.70;49.20
11591;DHT22;5851;54.050;9.974;2023-07-08T11:54:09;25.70;47.50
11591;DHT22;5851;54.050;9.974;2023-07-08T11:56:48;25.60;48.10
11591;DHT22;5851;54.050;9.974;2023-07-08T11:59:18;25.50;48.20
11591;DHT22;5851;54.050;9.974;2023-07-08T12:01:52;25.60;49.40
11591;DHT22;5851;54.050;9.974;2023-07-08T12:04:27;25.80;49.20
11591;DHT22;5851;54.050;9.974;2023-07-08T12:07:14;25.60;47.90
11591;DHT22;5851;54.050;9.974;2023-07-08T12:09:49;25.70;47.60
11591;DHT22;5851;54.050;9.974;2023-07-08T12:12:25;25.50;47.20
11591;DHT22;5851;54.050;9.974;2023-07-08T12:15:04;25.70;46.40
11591;DHT22;5851;54.050;9.974;2023-07-08T12:17:32;25.70;47.00
11591;DHT22;5851;54.050;9.974;2023-07-08T12:20:02;25.90;47.10
11591;DHT22;5851;54.050;9.974;2023-07-08T12:22:30;26.00;45.10
11591;DHT22;5851;54.050;9.974;2023-07-08T12:25:00;26.00;46.80
11591;DHT22;5851;54.050;9.974;2023-07-08T12:27:31;26.00;45.60
11591;DHT22;5851;54.050;9.974;2023-07-08T12:29:58;26.10;45.30
11591;DHT22;5851;54.050;9.974;2023-07-08T12:32:25;26.00;44.50
11591;DHT22;5851;54.050;9.974;2023-07-08T12:34:54;25.90;45.00
11591;DHT22;5851;54.050;9.974;2023-07-08T12:37:22;25.90;45.10
11591;DHT22;5851;54.050;9.974;2023-07-08T12:39:55;25.80;46.40
11591;DHT22;5851;54.050;9.974;2023-07-08T12:42:23;25.90;44.80
11591;DHT22;5851;54.050;9.974;2023-07-08T12:44:50;26.00;45.80
11591;DHT22;5851;54.050;9.974;2023-07-08T12:47:19;26.10;45.50
11591;DHT22;5851;54.050;9.974;2023-07-08T12:49:47;26.10;45.80
11591;DHT22;5851;54.050;9.974;2023-07-08T12:52:22;26.10;46.30
11591;DHT22;5851;54.050;9.974;2023-07-08T12:54:49;25.90;45.70
11591;DHT22;5851;54.050;9.974;2023-07-08T12:57:17;25.90;44.90
11591;DHT22;5851;54.050;9.974;2023-07-08T12:59:47;26.00;45.90
11591;DHT22;5851;54.050;9.974;2023-07-08T13:02:16;26.00;46.60
11591;DHT22;5851;54.050;9.974;2023-07-08T13:04:44;26.10;45.30
11591;DHT22;5851;54.050;9.974;2023-07-08T13:07:23;26.10;46.10
11591;DHT22;5851;54.050;9.974;2023-07-08T13:09:51;25.90;45.70
11591;DHT22;5851;54.050;9.974;2023-07-08T13:12:20;26.10;45.10
11591;DHT22;5851;54.050;9.974;2023-07-08T13:14:52;26.10;44.60
11591;DHT22;5851;54.050;9.974;2023-07-08T13:17:20;26.10;45.50
11591;DHT22;5851;54.050;9.974;2023-07-08T13:19:48;26.20;44.70
11591;DHT22;5851;54.050;9.974;2023-07-08T13:22:17;26.10;46.60
11591;DHT22;5851;54.050;9.974;2023-07-08T13:24:46;26.10;46.10
11591;DHT22;5851;54.050;9.974;2023-07-08T13:27:20;26.20;46.60
11591;DHT22;5851;54.050;9.974;2023-07-08T13:29:48;26.40;47.90
11591;DHT22;5851;54.050;9.974;2023-07-08T13:32:18;26.50;46.10
11591;DHT22;5851;54.050;9.974;2023-07-08T13:34:49;26.40;45.90
11591;DHT22;5851;54.050;9.974;2023-07-08T13:37:18;26.60;46.10
11591;DHT22;5851;54.050;9.974;2023-07-08T13:39:47;26.50;44.90
11591;DHT22;5851;54.050;9.974;2023-07-08T13:42:14;26.40;45.00
11591;DHT22;5851;54.050;9.974;2023-07-08T13:44:43;26.80;44.30
11591;DHT22;5851;54.050;9.974;2023-07-08T13:47:21;26.70;44.10
11591;DHT22;5851;54.050;9.974;2023-07-08T13:49:55;26.50;44.20
11591;DHT22;5851;54.050;9.974;2023-07-08T13:52:23;26.40;44.40
11591;DHT22;5851;54.050;9.974;2023-07-08T13:54:52;26.40;44.60
11591;DHT22;5851;54.050;9.974;2023-07-08T13:57:22;26.50;43.60
11591;DHT22;5851;54.050;9.974;2023-07-08T13:59:49;26.40;44.00
11591;DHT22;5851;54.050;9.974;2023-07-08T14:02:18;26.50;44.10
11591;DHT22;5851;54.050;9.974;2023-07-08T14:04:47;26.70;45.10
11591;DHT22;5851;54.050;9.974;2023-07-08T14:07:17;26.80;45.00
11591;DHT22;5851;54.050;9.974;2023-07-08T14:09:45;26.80;45.80
11591;DHT22;5851;54.050;9.974;2023-07-08T14:12:12;26.80;45.30
11591;DHT22;5851;54.050;9.974;2023-07-08T14:14:39;27.00;45.60
11591;DHT22;5851;54.050;9.974;2023-07-08T14:17:10;27.10;43.70
11591;DHT22;5851;54.050;9.974;2023-07-08T14:19:38;26.90;44.00
11591;DHT22;5851;54.050;9.974;2023-07-08T14:22:20;26.90;44.40
11591;DHT22;5851;54.050;9.974;2023-07-08T14:24:48;26.60;44.10
11591;DHT22;5851;54.050;9.974;2023-07-08T14:27:15;26.50;43.50
11591;DHT22;5851;54.050;9.974;2023-07-08T14:29:45;26.60;44.10
11591;DHT22;5851;54.050;9.974;2023-07-08T14:32:15;26.70;44.40
11591;DHT22;5851;54.050;9.974;2023-07-08T14:34:47;26.80;43.70
11591;DHT22;5851;54.050;9.974;2023-07-08T14:37:17;26.80;43.10
11591;DHT22;5851;54.050;9.974;2023-07-08T14:39:44;26.70;43.60
11591;DHT22;5851;54.050;9.974;2023-07-08T14:42:12;26.90;43.20
11591;DHT22;5851;54.050;9.974;2023-07-08T14:44:41;26.90;43.10
11591;DHT22;5851;54.050;9.974;2023-07-08T14:47:10;26.50;43.10
11591;DHT22;5851;54.050;9.974;2023-07-08T14:49:39;26.60;42.80
11591;DHT22;5851;54.050;9.974;2023-07-08T14:52:07;26.60;41.30
11591;DHT22;5851;54.050;9.974;2023-07-08T14:54:35;26.60;41.10
11591;DHT22;5851;54.050;9.974;2023-07-08T14:57:04;26.60;41.80
11591;DHT22;5851;54.050;9.974;2023-07-08T14:59:32;26.60;44.00
11591;DHT22;5851;54.050;9.974;2023-07-08T15:02:07;26.70;45.00
11591;DHT22;5851;54.050;9.974;2023-07-08T15:04:39;26.70;45.20
11591;DHT22;5851;54.050;9.974;2023-07-08T15:07:08;26.80;44.30
11591;DHT22;5851;54.050;9.974;2023-07-08T15:09:37;26.70;44.90
11591;DHT22;5851;54.050;9.974;2023-07-08T15:12:07;26.60;44.30
11591;DHT22;5851;54.050;9.974;2023-07-08T15:14:35;26.40;44.40
11591;DHT22;5851;54.050;9.974;2023-07-08T15:17:04;26.40;45.10
11591;DHT22;5851;54.050;9.974;2023-07-08T15:19:31;26.40;44.50
11591;DHT22;5851;54.050;9.974;2023-07-08T15:22:00;26.40;44.80
11591;DHT22;5851;54.050;9.974;2023-07-08T15:24:27;26.50;44.50
11591;DHT22;5851;54.050;9.974;2023-07-08T15:26:56;26.50;45.00
11591;DHT22;5851;54.050;9.974;2023-07-08T15:29:24;26.60;44.90
11591;DHT22;5851;54.050;9.974;2023-07-08T15:31:51;26.50;44.40
11591;DHT22;5851;54.050;9.974;2023-07-08T15:34:19;26.70;46.10
11591;DHT22;5851;54.050;9.974;2023-07-08T15:36:47;26.80;44.50
11591;DHT22;5851;54.050;9.974;2023-07-08T15:39:14;26.80;43.90
11591;DHT22;5851;54.050;9.974;2023-07-08T15:41:42;26.70;44.00
11591;DHT22;5851;54.050;9.974;2023-07-08T15:44:12;26.60;44.60
11591;DHT22;5851;54.050;9.974;2023-07-08T15:46:41;26.70;45.00
11591;DHT22;5851;54.050;9.974;2023-07-08T15:49:13;26.70;44.50
11591;DHT22;5851;54.050;9.974;2023-07-08T23:46:54;19.70;69.20
11591;DHT22;5851;54.050;9.974;2023-07-08T23:49:24;19.60;69.90
11591;DHT22;5851;54.050;9.974;2023-07-08T23:51:52;19.60;69.60
11591;DHT22;5851;54.050;9.974;2023-07-08T23:54:21;19.60;70.00